createdAt,value
2022-08-02T00:00:57.134Z,3.60
2022-08-02T00:03:24.934Z,4.50
2022-08-02T00:05:53.163Z,4.10
2022-08-02T00:08:22.973Z,4.43
2022-08-02T00:10:50.915Z,5.65
2022-08-02T00:13:18.613Z,3.17
2022-08-02T00:15:46.301Z,5.45
2022-08-02T00:18:13.961Z,1.70
2022-08-02T00:20:41.653Z,1.85
2022-08-02T00:23:09.324Z,3.90
2022-08-02T00:25:55.536Z,2.88
2022-08-02T00:28:27.774Z,4.38
2022-08-02T00:30:56.813Z,2.20
2022-08-02T00:34:05.613Z,4.63
2022-08-02T00:36:12.281Z,1.40
2022-08-02T00:38:39.952Z,2.10
2022-08-02T00:41:13.975Z,3.15
2022-08-02T00:43:41.671Z,2.05
2022-08-02T00:46:09.311Z,2.28
2022-08-02T00:48:36.985Z,3.03
2022-08-02T00:51:09.213Z,2.80
2022-08-02T00:53:36.867Z,2.65
2022-08-02T00:56:04.662Z,3.97
2022-08-02T00:58:33.670Z,3.30
2022-08-02T01:01:02.152Z,3.95
2022-08-02T01:03:29.900Z,1.30
2022-08-02T01:06:10.843Z,3.95
2022-08-02T01:08:39.082Z,3.70
2022-08-02T01:11:06.802Z,2.75
2022-08-02T01:13:35.839Z,2.22
2022-08-02T01:16:09.287Z,3.70
2022-08-02T01:18:39.489Z,2.75
2022-08-02T01:21:13.357Z,1.70
2022-08-02T01:23:49.831Z,3.42
2022-08-02T01:26:32.813Z,3.67
2022-08-02T01:29:03.576Z,3.47
2022-08-02T01:31:33.686Z,4.15
2022-08-02T01:34:04.100Z,3.05
2022-08-02T01:36:33.800Z,3.20
2022-08-02T01:39:02.042Z,2.67
2022-08-02T01:41:30.378Z,5.28
2022-08-02T01:43:59.323Z,2.30
2022-08-02T01:46:30.126Z,1.67
2022-08-02T01:48:59.131Z,2.97
2022-08-02T01:51:42.103Z,3.38
2022-08-02T01:54:10.786Z,3.90
2022-08-02T01:56:39.243Z,2.70
2022-08-02T01:59:10.135Z,4.55
2022-08-02T02:01:39.618Z,2.67
2022-08-02T02:04:08.941Z,2.67
2022-08-02T02:06:37.319Z,2.97
2022-08-02T02:09:06.133Z,2.85
2022-08-02T02:12:09.504Z,3.75
2022-08-02T02:14:22.155Z,3.47
2022-08-02T02:16:51.217Z,4.07
2022-08-02T02:19:21.119Z,3.15
2022-08-02T02:21:49.132Z,3.35
2022-08-02T02:24:16.795Z,2.72
2022-08-02T02:26:51.987Z,6.43
2022-08-02T02:29:21.836Z,2.22
2022-08-02T02:31:52.288Z,3.70
2022-08-02T02:34:26.161Z,4.57
2022-08-02T02:36:54.189Z,2.72
2022-08-02T02:39:23.560Z,2.67
2022-08-02T02:41:52.529Z,2.88
2022-08-02T02:44:21.507Z,4.60
2022-08-02T02:46:50.623Z,3.65
2022-08-02T02:49:20.358Z,2.63
2022-08-02T02:51:48.793Z,4.45
2022-08-02T02:54:30.714Z,2.55
2022-08-02T02:57:02.761Z,3.72
2022-08-02T02:59:30.758Z,2.40
2022-08-02T03:01:58.925Z,3.00
2022-08-02T03:04:35.989Z,2.67
2022-08-02T03:07:17.641Z,2.35
2022-08-02T03:09:53.796Z,3.10
2022-08-02T03:12:24.873Z,4.25
2022-08-02T03:14:56.597Z,4.60
2022-08-02T03:17:24.220Z,2.22
2022-08-02T03:19:53.264Z,2.55
2022-08-02T03:22:20.874Z,2.92
2022-08-02T03:24:48.519Z,4.68
2022-08-02T03:27:16.193Z,2.58
2022-08-02T03:29:43.833Z,4.25
2022-08-02T03:32:11.707Z,1.77
2022-08-02T03:34:39.533Z,2.17
2022-08-02T03:37:08.581Z,1.85
2022-08-02T03:39:36.288Z,3.33
2022-08-02T03:42:09.909Z,4.80
2022-08-02T03:44:43.694Z,2.28
2022-08-02T03:47:11.926Z,3.10
2022-08-02T03:49:39.798Z,3.70
2022-08-02T03:52:09.349Z,3.60
2022-08-02T03:54:45.243Z,3.25
2022-08-02T03:57:13.435Z,4.53
2022-08-02T03:59:41.536Z,3.20
2022-08-02T04:02:09.387Z,2.38
2022-08-02T04:04:37.306Z,4.75
2022-08-02T04:07:07.245Z,3.97
2022-08-02T04:09:36.736Z,3.08
2022-08-02T04:12:04.569Z,3.90
2022-08-02T04:14:35.536Z,5.15
2022-08-02T04:17:06.980Z,3.47
2022-08-02T04:19:38.721Z,4.75
2022-08-02T04:22:08.262Z,5.10
2022-08-02T04:24:39.818Z,6.25
2022-08-02T04:27:49.991Z,6.18
2022-08-02T04:29:56.473Z,5.10
2022-08-02T04:32:24.334Z,3.97
2022-08-02T04:35:18.247Z,5.03
2022-08-02T04:38:09.730Z,4.43
2022-08-02T04:40:29.144Z,5.50
2022-08-02T04:42:56.793Z,5.22
2022-08-02T04:45:24.501Z,7.07
2022-08-02T04:48:02.155Z,7.00
2022-08-02T04:50:31.752Z,6.35
2022-08-02T04:52:59.365Z,6.20
2022-08-02T04:55:28.970Z,5.50
2022-08-02T04:57:58.863Z,4.57
2022-08-02T05:00:26.969Z,4.68
2022-08-02T05:02:55.694Z,4.60
2022-08-02T05:05:23.282Z,6.82
2022-08-02T05:07:50.887Z,8.27
2022-08-02T05:10:18.521Z,6.35
2022-08-02T05:12:46.148Z,3.75
2022-08-02T05:15:17.986Z,7.53
2022-08-02T05:17:48.017Z,7.07
2022-08-02T05:20:16.111Z,6.55
2022-08-02T05:22:43.798Z,4.60
2022-08-02T05:25:11.518Z,6.35
2022-08-02T05:27:39.203Z,8.10
2022-08-02T05:30:07.624Z,8.27
2022-08-02T05:32:36.621Z,7.07
2022-08-02T05:35:04.516Z,11.27
2022-08-02T05:37:33.080Z,6.85
2022-08-02T05:40:03.111Z,6.03
2022-08-02T05:42:32.319Z,7.78
2022-08-02T05:44:59.979Z,3.65
2022-08-02T05:47:27.661Z,5.70
2022-08-02T05:49:56.678Z,8.30
2022-08-02T05:52:26.054Z,6.13
2022-08-02T05:54:56.284Z,3.20
2022-08-02T05:57:41.870Z,6.50
2022-08-02T06:00:13.313Z,5.25
2022-08-02T06:02:45.677Z,2.38
2022-08-02T06:05:15.744Z,8.75
2022-08-02T06:07:44.534Z,0.32
2022-08-02T06:10:13.644Z,5.50
2022-08-02T06:12:45.693Z,7.50
2022-08-02T06:15:14.741Z,8.63
2022-08-02T06:17:45.595Z,7.32
2022-08-02T06:20:15.464Z,5.72
2022-08-02T06:22:44.467Z,3.88
2022-08-02T06:25:48.171Z,5.90
2022-08-02T06:28:01.191Z,5.93
2022-08-02T06:30:28.940Z,2.22
2022-08-02T06:32:56.844Z,2.30
2022-08-02T06:35:27.021Z,4.57
2022-08-02T06:37:59.568Z,5.57
2022-08-02T06:40:29.397Z,2.30
2022-08-02T06:43:04.487Z,5.63
2022-08-02T06:45:33.151Z,4.22
2022-08-02T06:48:00.785Z,1.13
2022-08-02T06:50:29.757Z,6.07
2022-08-02T06:52:57.452Z,5.63
2022-08-02T06:55:25.290Z,8.40
2022-08-02T06:57:55.237Z,11.70
2022-08-02T07:00:22.872Z,0.57
2022-08-02T07:02:50.576Z,7.00
2022-08-02T07:05:19.137Z,4.63
2022-08-02T07:07:48.164Z,6.38
2022-08-02T07:10:16.025Z,6.13
2022-08-02T07:12:44.026Z,3.22
2022-08-02T07:15:12.593Z,3.92
2022-08-02T07:17:40.438Z,3.10
2022-08-02T07:20:09.769Z,3.38
2022-08-02T07:22:37.525Z,3.13
2022-08-02T07:25:08.307Z,5.25
2022-08-02T07:27:36.028Z,8.30
2022-08-02T07:30:04.313Z,1.40
2022-08-02T07:32:32.928Z,3.92
2022-08-02T07:35:06.692Z,3.35
2022-08-02T07:37:54.940Z,1.55
2022-08-02T07:40:25.569Z,3.00
2022-08-02T07:42:59.327Z,5.35
2022-08-02T07:45:31.067Z,2.03
2022-08-02T07:47:58.758Z,1.27
2022-08-02T07:50:28.245Z,1.40
2022-08-02T07:52:57.662Z,3.30
2022-08-02T07:55:35.215Z,2.35
2022-08-02T07:58:12.545Z,2.78
2022-08-02T08:00:41.870Z,2.47
2022-08-02T08:03:09.501Z,4.90
2022-08-02T08:05:37.160Z,1.92
2022-08-02T08:08:04.954Z,1.00
2022-08-02T08:10:34.277Z,1.42
2022-08-02T08:13:01.957Z,5.32
2022-08-02T08:15:29.640Z,1.98
2022-08-02T08:17:57.295Z,4.35
2022-08-02T08:20:25.116Z,2.33
2022-08-02T08:22:53.138Z,1.88
2022-08-02T08:25:20.857Z,1.77
2022-08-02T08:27:52.222Z,2.88
2022-08-02T08:30:20.589Z,1.63
2022-08-02T08:32:48.200Z,0.40
2022-08-02T08:35:15.992Z,1.73
2022-08-02T08:37:43.954Z,0.52
2022-08-02T08:40:12.138Z,2.65
2022-08-02T08:42:40.168Z,3.42
2022-08-02T08:45:10.005Z,1.88
2022-08-02T08:47:40.198Z,0.57
2022-08-02T08:50:13.113Z,1.30
2022-08-02T08:52:49.633Z,1.35
2022-08-02T08:55:17.762Z,4.88
2022-08-02T08:57:45.728Z,2.70
2022-08-02T09:00:16.748Z,8.48
2022-08-02T09:02:44.853Z,1.02
2022-08-02T09:05:13.660Z,2.50
2022-08-02T09:07:42.826Z,1.70
2022-08-02T09:10:31.476Z,1.10
2022-08-02T09:13:38.502Z,2.13
2022-08-02T09:15:57.832Z,0.40
2022-08-02T09:18:30.705Z,0.30
2022-08-02T09:20:59.322Z,2.35
2022-08-02T09:23:35.150Z,1.08
2022-08-02T09:26:07.385Z,0.90
2022-08-02T09:28:36.775Z,1.42
2022-08-02T09:31:07.577Z,0.70
2022-08-02T09:33:35.358Z,0.60
2022-08-02T09:36:06.265Z,0.65
2022-08-02T09:38:36.841Z,1.17
2022-08-02T09:41:05.008Z,1.52
2022-08-02T09:43:36.339Z,0.77
2022-08-02T09:46:16.462Z,1.60
2022-08-02T09:48:48.049Z,1.17
2022-08-02T09:51:21.572Z,0.75
2022-08-02T09:53:55.490Z,0.93
2022-08-02T09:56:35.602Z,1.40
2022-08-02T09:59:07.482Z,0.80
2022-08-02T10:01:37.122Z,1.30
2022-08-02T10:04:06.498Z,1.17
2022-08-02T10:06:34.874Z,0.85
2022-08-02T10:09:02.778Z,0.60
2022-08-02T10:11:31.566Z,2.85
2022-08-02T10:13:59.214Z,0.43
2022-08-02T10:16:26.864Z,0.40
2022-08-02T10:18:56.817Z,1.08
2022-08-02T10:21:29.612Z,0.60
2022-08-02T10:24:01.465Z,1.13
2022-08-02T10:26:29.539Z,0.90
2022-08-02T10:28:57.128Z,0.73
2022-08-02T10:31:26.535Z,0.95
2022-08-02T10:33:55.166Z,1.67
2022-08-02T10:36:27.164Z,1.27
2022-08-02T10:38:55.686Z,0.60
2022-08-02T10:41:42.546Z,1.13
2022-08-02T10:44:24.212Z,3.22
2022-08-02T10:46:52.912Z,0.75
2022-08-02T10:52:11.232Z,1.05
2022-08-02T10:54:40.006Z,1.77
2022-08-02T10:57:17.807Z,1.33
2022-08-02T10:59:45.485Z,0.98
2022-08-02T11:02:13.706Z,1.00
2022-08-02T11:05:00.063Z,1.85
2022-08-02T11:07:34.274Z,2.35
2022-08-02T11:10:21.929Z,0.47
2022-08-02T11:12:59.552Z,0.35
2022-08-02T11:15:27.401Z,1.58
2022-08-02T11:17:55.624Z,1.15
2022-08-02T11:20:23.693Z,0.52
2022-08-02T11:22:53.627Z,0.90
2022-08-02T11:26:03.176Z,0.93
2022-08-02T11:28:29.902Z,0.25
2022-08-02T11:30:58.771Z,1.08
2022-08-02T11:33:30.981Z,0.10
2022-08-02T11:36:02.093Z,0.38
2022-08-02T11:38:31.110Z,0.43
2022-08-02T11:40:58.746Z,0.77
2022-08-02T11:43:27.698Z,1.13
2022-08-02T11:45:56.305Z,1.45
2022-08-02T11:48:34.062Z,0.15
2022-08-02T11:51:09.324Z,0.95
2022-08-02T11:53:45.979Z,1.02
2022-08-02T11:56:14.379Z,0.40
2022-08-02T11:59:01.794Z,0.75
2022-08-02T12:01:29.772Z,0.90
2022-08-02T12:04:00.989Z,0.75
2022-08-02T12:06:29.917Z,0.77
2022-08-02T12:09:05.992Z,1.00
2022-08-02T12:11:48.989Z,0.40
2022-08-02T12:14:16.660Z,0.52
2022-08-02T12:17:01.593Z,0.50
2022-08-02T12:19:29.480Z,0.70
2022-08-02T12:22:10.938Z,0.57
2022-08-02T12:24:41.116Z,0.38
2022-08-02T12:27:09.299Z,0.75
2022-08-02T12:29:58.820Z,0.30
2022-08-02T12:32:25.964Z,0.95
2022-08-02T12:35:02.420Z,0.47
2022-08-02T12:37:30.114Z,0.38
2022-08-02T12:39:59.169Z,0.45
2022-08-02T12:42:26.812Z,0.73
2022-08-02T12:44:55.289Z,0.52
2022-08-02T12:47:23.196Z,0.65
2022-08-02T12:50:05.816Z,0.43
2022-08-02T12:52:33.590Z,0.70
2022-08-02T12:55:15.282Z,0.50
2022-08-02T12:57:51.998Z,1.17
2022-08-02T13:00:24.591Z,0.77
2022-08-02T13:02:52.287Z,0.55
2022-08-02T13:05:19.933Z,0.63
2022-08-02T13:07:47.663Z,1.92
2022-08-02T13:10:16.839Z,0.40
2022-08-02T13:12:44.559Z,1.17
2022-08-02T13:15:49.686Z,0.50
2022-08-02T13:18:01.334Z,1.10
2022-08-02T13:20:29.869Z,0.90
2022-08-02T13:23:03.958Z,0.75
2022-08-02T13:25:33.404Z,2.30
2022-08-02T13:28:01.476Z,0.60
2022-08-02T13:30:29.283Z,0.50
2022-08-02T13:33:00.958Z,0.75
2022-08-02T13:35:29.133Z,0.50
2022-08-02T13:37:56.778Z,0.60
2022-08-02T13:40:24.722Z,1.95
2022-08-02T13:42:53.735Z,0.85
2022-08-02T13:45:21.413Z,0.77
2022-08-02T13:48:04.028Z,1.58
2022-08-02T13:50:33.297Z,0.52
2022-08-02T13:53:00.932Z,0.73
2022-08-02T13:55:29.179Z,2.22
2022-08-02T13:57:58.284Z,1.13
2022-08-02T14:00:35.615Z,0.93
2022-08-02T14:03:04.659Z,0.75
2022-08-02T14:05:39.441Z,0.50
2022-08-02T14:08:17.412Z,0.60
2022-08-02T14:10:45.414Z,0.70
2022-08-02T14:13:14.602Z,1.00
2022-08-02T14:15:42.918Z,0.77
2022-08-02T14:18:10.689Z,0.80
2022-08-02T14:20:38.396Z,0.80
2022-08-02T14:23:06.989Z,2.45
2022-08-02T14:25:34.666Z,1.48
2022-08-02T14:28:02.346Z,0.88
2022-08-02T14:30:31.647Z,2.17
2022-08-02T14:32:59.279Z,0.98
2022-08-02T14:35:26.961Z,0.70
2022-08-02T14:37:54.642Z,0.73
2022-08-02T14:40:30.885Z,1.38
2022-08-02T14:43:00.045Z,1.20
2022-08-02T14:45:36.991Z,2.35
2022-08-02T14:48:10.565Z,1.73
2022-08-02T14:50:38.182Z,0.60
2022-08-02T14:53:05.856Z,1.85
2022-08-02T14:55:39.934Z,0.90
2022-08-02T14:58:07.576Z,0.60
2022-08-02T15:00:38.706Z,2.00
2022-08-02T15:03:09.060Z,1.27
2022-08-02T15:05:38.244Z,0.80
2022-08-02T15:08:06.235Z,0.65
2022-08-02T15:10:33.901Z,0.95
2022-08-02T15:13:01.512Z,3.65
2022-08-02T15:15:29.110Z,0.70
2022-08-02T15:17:57.601Z,1.30
2022-08-02T15:20:26.352Z,0.50
2022-08-02T15:22:56.157Z,2.05
2022-08-02T15:25:23.748Z,0.38
2022-08-02T15:27:51.345Z,0.52
2022-08-02T15:30:19.267Z,0.93
2022-08-02T15:32:53.212Z,2.10
2022-08-02T15:35:21.434Z,1.08
2022-08-02T15:37:49.143Z,0.40
2022-08-02T15:40:18.226Z,0.38
2022-08-02T15:42:45.895Z,1.15
2022-08-02T15:45:15.349Z,0.60
2022-08-02T15:47:48.060Z,0.32
2022-08-02T15:50:18.249Z,2.35
2022-08-02T15:52:45.876Z,2.10
2022-08-02T15:55:13.549Z,0.60
2022-08-02T15:57:42.560Z,0.82
2022-08-02T16:00:15.318Z,1.10
2022-08-02T16:02:47.567Z,0.40
2022-08-02T16:05:17.625Z,0.38
2022-08-02T16:07:45.457Z,0.45
2022-08-02T16:10:13.139Z,1.73
2022-08-02T16:12:42.166Z,0.20
2022-08-02T16:15:10.210Z,0.60
2022-08-02T16:17:52.083Z,1.55
2022-08-02T16:20:22.571Z,0.57
2022-08-02T16:22:50.214Z,2.15
2022-08-02T16:25:17.885Z,0.40
2022-08-02T16:28:06.131Z,0.38
2022-08-02T16:30:34.549Z,1.55
2022-08-02T16:33:02.174Z,0.77
2022-08-02T16:35:29.862Z,3.80
2022-08-02T16:37:57.483Z,0.93
2022-08-02T16:40:25.204Z,1.73
2022-08-02T16:42:54.238Z,0.63
2022-08-02T16:45:22.772Z,0.73
2022-08-02T16:47:55.782Z,0.70
2022-08-02T16:50:27.470Z,1.38
2022-08-02T16:52:56.855Z,1.42
2022-08-02T16:55:25.487Z,0.85
2022-08-02T16:57:56.934Z,1.05
2022-08-02T17:00:25.009Z,1.42
2022-08-02T17:02:52.696Z,1.00
2022-08-02T17:05:21.077Z,1.55
2022-08-02T17:10:37.454Z,2.03
2022-08-02T17:13:11.177Z,0.82
2022-08-02T17:16:16.419Z,0.98
2022-08-02T17:18:27.618Z,1.02
2022-08-02T17:20:55.393Z,0.65
2022-08-02T17:23:23.021Z,1.42
2022-08-02T17:26:10.674Z,0.75
2022-08-02T17:29:06.921Z,1.13
2022-08-02T17:31:30.313Z,1.30
2022-08-02T17:34:10.804Z,0.88
2022-08-02T17:36:38.864Z,0.38
2022-08-02T17:41:54.342Z,1.88
2022-08-02T17:44:37.464Z,1.42
2022-08-02T17:47:08.612Z,1.30
2022-08-02T17:49:43.776Z,1.45
2022-08-02T17:52:47.752Z,0.95
2022-08-02T17:55:02.181Z,0.25
2022-08-02T17:57:55.758Z,0.30
2022-08-02T18:00:21.082Z,0.60
2022-08-02T18:02:52.780Z,0.10
2022-08-02T18:05:23.554Z,0.20
2022-08-02T18:08:07.456Z,0.20
2022-08-02T18:10:35.279Z,15.88
2022-08-02T18:13:05.129Z,3.60
2022-08-02T18:15:34.198Z,3.13
2022-08-02T18:18:01.941Z,1.65
2022-08-02T18:20:29.606Z,8.70
2022-08-02T18:22:58.667Z,5.55
2022-08-02T18:25:37.085Z,3.03
2022-08-02T18:28:13.347Z,0.57
2022-08-02T18:30:42.385Z,0.40
2022-08-02T18:33:56.812Z,3.97
2022-08-02T18:35:57.912Z,1.23
2022-08-02T18:38:27.890Z,2.08
2022-08-02T18:40:55.756Z,2.75
2022-08-02T18:43:25.321Z,0.28
2022-08-02T18:46:07.484Z,0.85
2022-08-02T18:48:46.622Z,0.40
2022-08-02T18:51:14.951Z,0.43
2022-08-02T18:53:43.204Z,1.38
2022-08-02T18:56:20.497Z,0.85
2022-08-02T18:58:52.481Z,1.17
2022-08-02T19:01:31.584Z,2.47
2022-08-02T19:04:00.724Z,3.17
2022-08-02T19:06:29.332Z,4.53
2022-08-02T19:09:11.454Z,7.95
2022-08-02T19:11:47.538Z,4.78
2022-08-02T19:14:24.155Z,8.45
2022-08-02T19:16:58.002Z,8.70
2022-08-02T19:19:29.225Z,6.13
2022-08-02T19:22:18.199Z,7.28
2022-08-02T19:24:45.865Z,7.75
2022-08-02T19:27:15.291Z,6.60
2022-08-02T19:29:50.846Z,8.85
2022-08-02T19:32:42.754Z,11.63
2022-08-02T19:35:19.488Z,6.15
2022-08-02T19:37:59.398Z,7.00
2022-08-02T19:40:29.069Z,7.70
2022-08-02T19:44:21.162Z,3.05
2022-08-02T19:45:50.943Z,9.45
2022-08-02T19:48:23.467Z,9.02
2022-08-02T19:50:51.434Z,7.65
2022-08-02T19:53:19.682Z,7.43
2022-08-02T19:56:00.187Z,6.78
2022-08-02T19:58:30.289Z,9.45
2022-08-02T20:00:58.264Z,5.93
2022-08-02T20:03:51.947Z,4.93
2022-08-02T20:06:14.897Z,7.00
2022-08-02T20:08:53.249Z,7.40
2022-08-02T20:11:24.998Z,8.05
2022-08-02T20:13:52.742Z,4.93
2022-08-02T20:16:27.378Z,4.05
2022-08-02T20:18:57.459Z,8.13
2022-08-02T20:21:36.501Z,4.65
2022-08-02T20:24:05.993Z,6.38
2022-08-02T20:26:35.355Z,9.32
2022-08-02T20:29:03.620Z,9.55
2022-08-02T20:31:31.312Z,5.88
2022-08-02T20:34:00.293Z,6.55
2022-08-02T20:36:28.217Z,5.25
2022-08-02T20:38:55.840Z,8.90
2022-08-02T20:41:23.561Z,6.75
2022-08-02T20:44:05.131Z,3.95
2022-08-02T20:46:43.277Z,3.55
2022-08-02T20:49:23.139Z,6.38
2022-08-02T20:51:53.995Z,7.03
2022-08-02T20:54:22.269Z,7.93
2022-08-02T20:56:50.600Z,6.03
2022-08-02T20:59:21.129Z,6.88
2022-08-02T21:01:57.223Z,3.38
2022-08-02T21:04:27.277Z,6.15
2022-08-02T21:06:59.068Z,3.28
2022-08-02T21:09:52.827Z,8.73
2022-08-02T21:12:14.591Z,5.88
2022-08-02T21:14:42.229Z,6.75
2022-08-02T21:17:11.115Z,5.65
2022-08-02T21:19:44.128Z,7.10
2022-08-02T21:22:12.160Z,6.10
2022-08-02T21:24:39.782Z,6.25
2022-08-02T21:27:51.431Z,6.40
2022-08-02T21:29:55.016Z,7.72
2022-08-02T21:32:22.650Z,6.38
2022-08-02T21:34:51.618Z,6.00
2022-08-02T21:37:20.445Z,11.48
2022-08-02T21:39:49.931Z,11.05
2022-08-02T21:42:22.362Z,6.45
2022-08-02T21:44:51.082Z,9.55
2022-08-02T21:47:25.157Z,11.90
2022-08-02T21:50:13.646Z,3.80
2022-08-02T21:52:52.027Z,9.00
2022-08-02T21:55:21.310Z,8.57
2022-08-02T21:57:52.164Z,6.35
2022-08-02T22:00:28.303Z,4.53
2022-08-02T22:02:56.643Z,9.70
2022-08-02T22:05:25.750Z,7.75
2022-08-02T22:07:53.402Z,7.93
2022-08-02T22:10:22.238Z,9.77
2022-08-02T22:12:49.861Z,6.35
2022-08-02T22:15:18.425Z,4.78
2022-08-02T22:18:03.324Z,8.18
2022-08-02T22:20:32.528Z,7.70
2022-08-02T22:23:00.453Z,9.77
2022-08-02T22:25:36.953Z,8.27
2022-08-02T22:28:39.158Z,5.72
2022-08-02T22:30:53.965Z,6.97
2022-08-02T22:33:42.131Z,8.35
2022-08-02T22:36:11.760Z,9.13
2022-08-02T22:38:39.516Z,6.93
2022-08-02T22:41:12.520Z,4.65
2022-08-02T22:43:40.525Z,7.20
2022-08-02T22:46:09.129Z,7.20
2022-08-02T22:48:40.199Z,7.30
2022-08-02T22:51:07.998Z,9.52
2022-08-02T22:53:36.943Z,7.18
2022-08-02T22:56:06.321Z,5.93
2022-08-02T22:58:34.089Z,5.38
2022-08-02T22:58:36.734Z,1.40
2022-08-02T22:58:50.584Z,0.50
2022-08-02T23:01:01.819Z,5.25
2022-08-02T23:03:29.685Z,7.43
2022-08-02T23:05:57.649Z,7.38
2022-08-02T23:08:25.491Z,5.00
2022-08-02T23:10:54.557Z,4.47
2022-08-02T23:13:26.630Z,4.07
2022-08-02T23:16:13.691Z,5.97
2022-08-02T23:18:58.701Z,8.10
2022-08-02T23:21:46.074Z,4.93
2022-08-02T23:24:14.008Z,3.78
2022-08-02T23:26:43.334Z,5.72
2022-08-02T23:29:10.966Z,10.43
2022-08-02T23:31:38.652Z,6.40
2022-08-02T23:34:06.830Z,7.45
2022-08-02T23:36:34.959Z,8.95
2022-08-02T23:39:02.601Z,9.18
2022-08-02T23:41:30.221Z,6.82
2022-08-02T23:44:13.114Z,8.13
2022-08-02T23:46:42.178Z,6.43
2022-08-02T23:49:10.097Z,5.25
2022-08-02T23:51:37.797Z,5.85
2022-08-02T23:54:05.488Z,7.28
2022-08-02T23:56:33.144Z,7.95
2022-08-02T23:59:02.158Z,3.97
